Time;durP1;ratioP1;P1;durP2;ratioP2;P2;SDS_P1;SDS_P2;PMS_P1;PMS_P2;Temp;Humidity;BMP_temperature;BMP_pressure;BME280_temperature;BME280_humidity;BME280_pressure;Samples;Min_cycle;Max_cycle;Signal;HPM_P1;HPM_P2
2021/11/30 00:02:29;;;;;;;6.50;3.87;;;;;;;;;;5056730;28;20503;-74
2021/11/30 00:04:57;;;;;;;5.67;4.23;;;;;;;;;;5051609;28;20464;-75
2021/11/30 00:07:25;;;;;;;6.53;4.37;;;;;;;;;;5055519;28;20868;-75
2021/11/30 00:12:38;;;;;;;6.40;4.20;;;;;;;;;;5056964;28;20901;-75
2021/11/30 00:15:06;;;;;;;6.17;4.23;;;;;;;;;;5057082;28;20485;-74
2021/11/30 00:17:36;;;;;;;4.03;3.63;;;;;;;;;;5055500;28;20454;-74
2021/11/30 00:20:04;;;;;;;4.90;3.23;;;;;;;;;;5056802;28;20460;-74
2021/11/30 00:22:32;;;;;;;4.67;3.60;;;;;;;;;;5043203;28;20472;-74
2021/11/30 00:25:00;;;;;;;3.53;3.20;;;;;;;;;;5060631;28;20436;-74
2021/11/30 00:27:30;;;;;;;4.13;3.30;;;;;;;;;;5071098;28;20465;-74
2021/11/30 00:29:58;;;;;;;6.43;3.57;;;;;;;;;;5053723;28;20843;-75
2021/11/30 00:32:26;;;;;;;3.93;3.10;;;;;;;;;;5057871;28;20465;-74
2021/11/30 00:34:55;;;;;;;7.53;3.53;;;;;;;;;;5048587;28;20468;-75
2021/11/30 00:37:23;;;;;;;3.97;2.77;;;;;;;;;;5052156;28;20458;-75
2021/11/30 00:39:51;;;;;;;5.47;3.17;;;;;;;;;;5055237;28;20469;-74
2021/11/30 00:42:23;;;;;;;4.60;3.47;;;;;;;;;;5060191;28;20437;-74
2021/11/30 00:44:53;;;;;;;4.90;2.90;;;;;;;;;;5060432;28;20892;-75
2021/11/30 00:47:28;;;;;;;3.70;2.90;;;;;;;;;;5059387;28;20528;-75
2021/11/30 00:49:59;;;;;;;5.03;2.87;;;;;;;;;;5059953;28;20467;-74
2021/11/30 00:52:27;;;;;;;4.53;2.97;;;;;;;;;;5057493;28;20528;-75
2021/11/30 00:54:56;;;;;;;3.30;2.87;;;;;;;;;;5049485;28;20937;-75
2021/11/30 00:57:24;;;;;;;2.83;2.60;;;;;;;;;;5060033;28;20481;-75
2021/11/30 00:59:52;;;;;;;2.60;2.40;;;;;;;;;;5059889;28;20999;-75
2021/11/30 01:02:20;;;;;;;3.20;2.60;;;;;;;;;;5059768;28;20534;-75
2021/11/30 01:04:49;;;;;;;3.20;2.40;;;;;;;;;;5051183;28;20883;-75
2021/11/30 01:07:18;;;;;;;3.07;2.50;;;;;;;;;;5050121;28;20458;-75
2021/11/30 01:09:46;;;;;;;3.90;2.80;;;;;;;;;;5059947;28;20491;-75
2021/11/30 01:12:14;;;;;;;3.20;2.53;;;;;;;;;;5059506;28;20487;-74
2021/11/30 01:14:42;;;;;;;2.97;2.70;;;;;;;;;;5059927;28;20536;-75
2021/11/30 01:17:10;;;;;;;6.67;3.30;;;;;;;;;;5047628;28;20478;-75
2021/11/30 01:19:38;;;;;;;3.20;2.33;;;;;;;;;;5058137;28;20529;-75
2021/11/30 01:22:06;;;;;;;4.67;2.53;;;;;;;;;;5059775;28;20451;-75
2021/11/30 01:24:35;;;;;;;3.10;2.60;;;;;;;;;;5049914;28;20986;-75
2021/11/30 01:27:03;;;;;;;3.77;1.80;;;;;;;;;;5079142;28;20473;-74
2021/11/30 01:29:31;;;;;;;6.03;2.50;;;;;;;;;;5066381;28;20476;-74
2021/11/30 01:31:59;;;;;;;2.57;2.37;;;;;;;;;;5059578;28;20456;-75
2021/11/30 01:34:27;;;;;;;3.90;2.20;;;;;;;;;;5056312;28;20549;-75
2021/11/30 01:36:55;;;;;;;3.00;2.57;;;;;;;;;;5056132;28;20487;-75
2021/11/30 01:39:23;;;;;;;4.60;2.40;;;;;;;;;;5053773;28;20477;-75
2021/11/30 01:41:54;;;;;;;3.43;2.33;;;;;;;;;;5059131;28;20440;-75
2021/11/30 01:44:33;;;;;;;3.17;2.13;;;;;;;;;;5059013;28;20516;-75
2021/11/30 01:47:22;;;;;;;2.20;2.00;;;;;;;;;;5068383;28;20444;-75
2021/11/30 01:49:51;;;;;;;2.60;1.63;;;;;;;;;;5046528;28;20470;-75
2021/11/30 01:52:19;;;;;;;2.40;1.77;;;;;;;;;;5059285;28;20445;-75
2021/11/30 01:54:48;;;;;;;4.60;2.50;;;;;;;;;;5057896;28;20449;-75
2021/11/30 01:57:18;;;;;;;3.27;2.23;;;;;;;;;;5060173;28;20546;-75
2021/11/30 01:59:47;;;;;;;2.60;2.13;;;;;;;;;;5061754;28;20560;-75
2021/11/30 02:02:15;;;;;;;4.03;2.10;;;;;;;;;;5059763;28;20545;-74
2021/11/30 02:04:43;;;;;;;3.17;2.17;;;;;;;;;;5052479;28;20468;-74
2021/11/30 02:07:11;;;;;;;2.83;2.63;;;;;;;;;;5057703;28;20513;-74
2021/11/30 02:09:40;;;;;;;4.40;2.00;;;;;;;;;;5045944;28;20466;-75
2021/11/30 02:12:09;;;;;;;3.27;2.30;;;;;;;;;;5058616;28;20477;-74
2021/11/30 02:14:39;;;;;;;2.70;2.07;;;;;;;;;;5058663;28;20448;-74
2021/11/30 02:17:08;;;;;;;2.97;2.50;;;;;;;;;;5056481;28;20492;-75
2021/11/30 02:19:43;;;;;;;2.73;2.13;;;;;;;;;;5062309;28;20464;-74
2021/11/30 02:22:13;;;;;;;4.37;2.33;;;;;;;;;;5078608;28;20534;-74
2021/11/30 02:24:42;;;;;;;3.33;2.40;;;;;;;;;;5073593;28;20951;-74
2021/11/30 02:27:10;;;;;;;4.33;2.60;;;;;;;;;;5043882;28;20457;-74
2021/11/30 02:29:38;;;;;;;4.20;2.37;;;;;;;;;;5057320;28;20476;-74
2021/11/30 02:32:07;;;;;;;2.53;2.10;;;;;;;;;;5058156;28;20450;-75
2021/11/30 02:34:35;;;;;;;3.80;2.23;;;;;;;;;;5046438;28;20456;-74
2021/11/30 02:37:07;;;;;;;3.17;2.60;;;;;;;;;;5055008;28;20504;-74
2021/11/30 02:39:36;;;;;;;2.47;2.13;;;;;;;;;;5057191;28;20484;-74
2021/11/30 02:42:06;;;;;;;2.47;2.27;;;;;;;;;;5058096;28;20445;-74
2021/11/30 02:44:34;;;;;;;2.37;1.93;;;;;;;;;;5058117;28;20818;-74
2021/11/30 02:47:03;;;;;;;4.33;2.50;;;;;;;;;;5057660;28;20445;-74
2021/11/30 02:49:32;;;;;;;2.90;2.60;;;;;;;;;;5056368;28;20847;-74
2021/11/30 02:52:05;;;;;;;4.77;2.70;;;;;;;;;;5056745;28;20967;-74
2021/11/30 02:54:33;;;;;;;4.30;2.43;;;;;;;;;;5057098;28;20441;-74
2021/11/30 02:57:04;;;;;;;3.77;2.40;;;;;;;;;;5053079;28;20488;-75
2021/11/30 02:59:33;;;;;;;3.93;2.40;;;;;;;;;;5053259;28;20843;-74
2021/11/30 03:02:02;;;;;;;2.30;2.10;;;;;;;;;;5057301;28;20449;-74
2021/11/30 03:04:30;;;;;;;2.60;2.40;;;;;;;;;;5049923;28;20462;-74
2021/11/30 03:06:59;;;;;;;2.37;2.10;;;;;;;;;;5044083;28;20985;-74
2021/11/30 03:09:27;;;;;;;2.90;2.70;;;;;;;;;;5056613;28;20595;-74
2021/11/30 03:11:56;;;;;;;4.67;2.73;;;;;;;;;;5057650;28;20473;-74
2021/11/30 03:14:27;;;;;;;4.57;2.70;;;;;;;;;;5057689;28;20445;-74
2021/11/30 03:16:56;;;;;;;3.70;2.40;;;;;;;;;;5052071;28;20516;-74
2021/11/30 03:19:26;;;;;;;5.10;2.57;;;;;;;;;;5057191;28;20498;-74
2021/11/30 03:21:54;;;;;;;2.70;2.50;;;;;;;;;;5057240;28;20830;-74
2021/11/30 03:24:22;;;;;;;2.50;2.30;;;;;;;;;;5057421;28;20449;-75
2021/11/30 03:26:50;;;;;;;5.73;2.80;;;;;;;;;;5067485;28;20459;-74
2021/11/30 03:29:18;;;;;;;3.53;2.87;;;;;;;;;;5061976;28;20488;-74
2021/11/30 03:31:58;;;;;;;2.87;2.57;;;;;;;;;;5056454;28;20465;-74
2021/11/30 03:34:25;;;;;;;3.10;2.77;;;;;;;;;;5050989;28;20460;-74
2021/11/30 03:36:54;;;;;;;3.67;2.90;;;;;;;;;;5057337;28;20604;-74
2021/11/30 03:39:23;;;;;;;4.87;2.50;;;;;;;;;;5056496;28;20556;-74
2021/11/30 03:41:52;;;;;;;4.83;2.60;;;;;;;;;;5057319;28;20449;-74
2021/11/30 03:44:20;;;;;;;4.67;2.73;;;;;;;;;;5057286;28;20940;-75
2021/11/30 03:46:50;;;;;;;5.30;2.80;;;;;;;;;;5057034;28;20528;-74
2021/11/30 03:49:19;;;;;;;4.13;2.57;;;;;;;;;;5057205;28;20833;-74
2021/11/30 03:51:47;;;;;;;3.00;2.63;;;;;;;;;;5052660;28;20986;-74
2021/11/30 03:54:16;;;;;;;3.30;2.50;;;;;;;;;;5057109;28;20947;-74
2021/11/30 03:56:44;;;;;;;3.37;3.00;;;;;;;;;;5056938;28;20453;-74
2021/11/30 03:59:12;;;;;;;4.47;3.53;;;;;;;;;;5055445;28;20457;-74
2021/11/30 04:01:40;;;;;;;3.60;2.77;;;;;;;;;;5056207;28;20468;-74
2021/11/30 04:04:19;;;;;;;3.83;2.97;;;;;;;;;;5056777;28;20441;-75
2021/11/30 04:06:47;;;;;;;2.70;2.50;;;;;;;;;;5058190;28;20491;-74
2021/11/30 04:09:15;;;;;;;3.30;3.00;;;;;;;;;;5059818;28;20847;-75
2021/11/30 04:11:43;;;;;;;2.67;2.47;;;;;;;;;;5060612;28;20980;-75
2021/11/30 04:14:11;;;;;;;3.67;2.97;;;;;;;;;;5060590;28;20531;-75
2021/11/30 04:16:41;;;;;;;5.03;3.50;;;;;;;;;;5047686;28;20549;-75
2021/11/30 04:19:11;;;;;;;4.50;3.83;;;;;;;;;;5058936;28;20508;-75
2021/11/30 04:21:39;;;;;;;11.07;4.10;;;;;;;;;;5060576;28;20445;-74
2021/11/30 04:24:07;;;;;;;4.40;3.77;;;;;;;;;;5060791;28;20452;-75
2021/11/30 04:26:35;;;;;;;4.60;4.20;;;;;;;;;;5046585;28;21028;-74
2021/11/30 04:29:03;;;;;;;6.20;4.40;;;;;;;;;;5060659;28;20457;-74
2021/11/30 04:31:32;;;;;;;6.30;4.87;;;;;;;;;;5045039;28;20462;-74
2021/11/30 04:34:02;;;;;;;5.63;5.03;;;;;;;;;;5060653;28;20932;-74
2021/11/30 04:36:32;;;;;;;8.20;4.87;;;;;;;;;;5055388;28;20936;-74
2021/11/30 04:39:01;;;;;;;6.37;5.07;;;;;;;;;;5059474;28;20559;-74
2021/11/30 04:41:29;;;;;;;6.93;4.93;;;;;;;;;;5060516;28;20441;-74
2021/11/30 04:43:57;;;;;;;8.07;5.20;;;;;;;;;;5060664;28;20453;-74
2021/11/30 04:46:26;;;;;;;5.97;5.00;;;;;;;;;;5060339;28;20445;-74
2021/11/30 04:48:57;;;;;;;7.33;6.13;;;;;;;;;;5060323;28;20477;-74
2021/11/30 04:51:26;;;;;;;9.60;5.87;;;;;;;;;;5047858;28;20536;-74
2021/11/30 04:53:56;;;;;;;7.00;6.07;;;;;;;;;;5060216;28;20437;-74
2021/11/30 04:56:24;;;;;;;8.50;5.93;;;;;;;;;;5059970;28;20441;-74
2021/11/30 04:58:52;;;;;;;8.17;6.20;;;;;;;;;;5060043;28;20497;-74
2021/11/30 05:01:20;;;;;;;6.70;5.53;;;;;;;;;;5046776;28;20471;-75
2021/11/30 05:03:48;;;;;;;7.70;6.37;;;;;;;;;;5058423;28;20449;-74
2021/11/30 05:06:17;;;;;;;11.30;8.13;;;;;;;;;;5059634;28;20505;-75
2021/11/30 05:08:45;;;;;;;10.30;7.23;;;;;;;;;;5050739;28;20562;-74
2021/11/30 05:11:14;;;;;;;9.57;6.07;;;;;;;;;;5046359;28;20441;-75
2021/11/30 05:13:42;;;;;;;9.43;6.33;;;;;;;;;;5059482;28;20469;-74
2021/11/30 05:16:10;;;;;;;9.57;6.60;;;;;;;;;;5059414;28;20940;-75
2021/11/30 05:18:42;;;;;;;13.03;6.57;;;;;;;;;;5057038;28;20563;-74
2021/11/30 05:21:10;;;;;;;13.20;6.90;;;;;;;;;;5059813;28;20513;-75
2021/11/30 05:23:40;;;;;;;7.47;6.57;;;;;;;;;;5060488;28;20449;-74
2021/11/30 05:26:09;;;;;;;6.53;5.73;;;;;;;;;;5060098;28;20936;-75
2021/11/30 05:28:41;;;;;;;9.70;6.40;;;;;;;;;;5059466;28;20469;-74
2021/11/30 05:31:10;;;;;;;9.60;6.00;;;;;;;;;;5058609;28;20970;-75
2021/11/30 05:33:39;;;;;;;11.73;7.23;;;;;;;;;;5057013;28;20774;-75
2021/11/30 05:36:07;;;;;;;9.30;7.27;;;;;;;;;;5051830;28;20468;-74
2021/11/30 05:38:36;;;;;;;11.47;6.50;;;;;;;;;;5056526;28;20481;-74
2021/11/30 05:41:04;;;;;;;8.63;6.23;;;;;;;;;;5058652;28;20540;-74
2021/11/30 05:43:35;;;;;;;6.60;5.70;;;;;;;;;;5059075;28;20449;-72
2021/11/30 05:46:06;;;;;;;10.53;6.87;;;;;;;;;;5059227;28;20441;-72
2021/11/30 05:48:34;;;;;;;11.80;7.23;;;;;;;;;;5059013;28;20479;-72
2021/11/30 05:51:03;;;;;;;7.83;5.97;;;;;;;;;;5055028;28;20540;-73
2021/11/30 05:53:31;;;;;;;8.03;6.47;;;;;;;;;;5059333;28;20509;-72
2021/11/30 05:55:59;;;;;;;9.20;6.67;;;;;;;;;;5059172;28;20455;-74
2021/11/30 05:58:29;;;;;;;9.13;6.60;;;;;;;;;;5058578;28;20481;-72
2021/11/30 06:01:04;;;;;;;8.53;6.30;;;;;;;;;;5058437;28;20458;-73
2021/11/30 06:03:45;;;;;;;10.47;6.73;;;;;;;;;;5057116;28;20521;-74
2021/11/30 06:06:13;;;;;;;7.00;5.87;;;;;;;;;;5058533;28;20448;-73
2021/11/30 06:08:41;;;;;;;8.33;6.33;;;;;;;;;;5048410;28;20565;-74
2021/11/30 06:11:09;;;;;;;8.57;6.03;;;;;;;;;;5045206;28;20814;-74
2021/11/30 06:13:37;;;;;;;7.20;6.27;;;;;;;;;;5058317;28;20976;-74
2021/11/30 06:16:05;;;;;;;12.43;6.40;;;;;;;;;;5058454;28;20552;-74
2021/11/30 06:18:35;;;;;;;6.57;5.43;;;;;;;;;;5046431;28;21016;-74
2021/11/30 06:21:03;;;;;;;7.50;5.80;;;;;;;;;;5058429;28;20465;-74
2021/11/30 06:23:31;;;;;;;10.20;6.73;;;;;;;;;;5058612;28;20481;-73
2021/11/30 06:25:59;;;;;;;8.63;6.50;;;;;;;;;;5049557;28;20458;-74
2021/11/30 06:28:27;;;;;;;9.53;5.77;;;;;;;;;;5053300;28;20816;-74
2021/11/30 06:30:55;;;;;;;8.50;5.83;;;;;;;;;;5057019;28;20937;-74
2021/11/30 06:33:23;;;;;;;7.27;5.93;;;;;;;;;;5058455;28;20456;-74
2021/11/30 06:35:52;;;;;;;7.80;5.83;;;;;;;;;;5049619;28;20459;-74
2021/11/30 06:38:20;;;;;;;8.70;6.53;;;;;;;;;;5055516;28;20508;-74
2021/11/30 06:40:48;;;;;;;10.77;6.20;;;;;;;;;;5058124;28;20456;-69
2021/11/30 06:43:17;;;;;;;10.50;6.70;;;;;;;;;;5055663;28;20497;-68
2021/11/30 06:45:45;;;;;;;11.73;7.53;;;;;;;;;;5054075;28;20530;-68
2021/11/30 06:48:13;;;;;;;9.43;7.80;;;;;;;;;;5058359;28;20491;-68
2021/11/30 06:50:41;;;;;;;9.10;6.73;;;;;;;;;;5054386;28;20453;-67
2021/11/30 06:53:10;;;;;;;11.77;7.30;;;;;;;;;;5059685;28;20444;-68
2021/11/30 06:55:39;;;;;;;11.13;7.17;;;;;;;;;;5053773;28;20541;-67
2021/11/30 06:58:07;;;;;;;7.80;6.67;;;;;;;;;;5057437;28;20540;-71
2021/11/30 07:00:35;;;;;;;7.93;6.50;;;;;;;;;;5058288;28;20480;-73
2021/11/30 07:03:03;;;;;;;8.17;5.47;;;;;;;;;;5054415;28;20459;-72
2021/11/30 07:05:33;;;;;;;10.80;6.40;;;;;;;;;;5057270;28;20453;-72
2021/11/30 07:08:13;;;;;;;9.23;6.30;;;;;;;;;;5059494;28;20461;-72
2021/11/30 07:10:49;;;;;;;7.80;6.33;;;;;;;;;;5055655;28;20528;-72
2021/11/30 07:13:26;;;;;;;7.43;6.70;;;;;;;;;;5055935;28;20483;-73
2021/11/30 07:15:55;;;;;;;7.93;6.30;;;;;;;;;;5057008;28;20461;-72
2021/11/30 07:18:24;;;;;;;9.67;6.60;;;;;;;;;;5057133;28;20460;-72
2021/11/30 07:20:53;;;;;;;11.37;7.10;;;;;;;;;;5051234;28;20482;-72
2021/11/30 07:23:21;;;;;;;7.00;5.87;;;;;;;;;;5056130;28;20456;-72
2021/11/30 07:25:52;;;;;;;11.27;7.27;;;;;;;;;;5057504;28;20801;-72
2021/11/30 07:28:22;;;;;;;7.40;6.03;;;;;;;;;;5055001;28;20453;-72
2021/11/30 07:30:50;;;;;;;9.43;7.10;;;;;;;;;;5055988;28;20513;-72
2021/11/30 07:33:18;;;;;;;10.87;6.87;;;;;;;;;;5054989;28;20483;-72
2021/11/30 07:35:46;;;;;;;8.07;6.57;;;;;;;;;;5053711;28;20460;-72
2021/11/30 07:38:14;;;;;;;8.90;6.20;;;;;;;;;;5054560;28;20475;-73
2021/11/30 07:40:42;;;;;;;14.03;6.60;;;;;;;;;;5056314;28;20478;-73
2021/11/30 07:43:12;;;;;;;7.43;6.60;;;;;;;;;;5059558;28;20524;-68
2021/11/30 07:45:40;;;;;;;9.90;5.60;;;;;;;;;;5059079;28;20520;-68
2021/11/30 07:48:08;;;;;;;7.97;5.90;;;;;;;;;;5061218;28;20554;-69
2021/11/30 07:50:35;;;;;;;10.70;6.20;;;;;;;;;;5051514;28;20942;-68
2021/11/30 07:53:03;;;;;;;10.43;6.37;;;;;;;;;;5057592;28;20457;-70
2021/11/30 07:55:32;;;;;;;13.40;6.80;;;;;;;;;;5060744;28;20527;-70
2021/11/30 07:58:00;;;;;;;14.77;7.87;;;;;;;;;;5073623;28;20476;-70
2021/11/30 08:00:29;;;;;;;10.43;6.90;;;;;;;;;;5052851;28;20483;-71
2021/11/30 08:02:57;;;;;;;9.87;6.77;;;;;;;;;;5048504;28;20472;-70
2021/11/30 08:05:26;;;;;;;9.40;7.07;;;;;;;;;;5050178;28;20449;-70
2021/11/30 08:07:54;;;;;;;14.70;6.40;;;;;;;;;;5045156;28;20482;-70
2021/11/30 08:10:25;;;;;;;12.20;6.83;;;;;;;;;;5051158;28;20514;-69
2021/11/30 08:12:53;;;;;;;11.63;7.60;;;;;;;;;;5046438;28;20556;-69
2021/11/30 08:15:21;;;;;;;10.77;7.70;;;;;;;;;;5048222;28;20470;-70
2021/11/30 08:18:06;;;;;;;9.67;7.03;;;;;;;;;;5054636;28;20540;-69
2021/11/30 08:20:34;;;;;;;12.93;7.93;;;;;;;;;;5057630;28;20571;-68
2021/11/30 08:23:03;;;;;;;17.83;12.00;;;;;;;;;;5048754;28;20509;-68
2021/11/30 08:25:31;;;;;;;11.43;7.03;;;;;;;;;;5048539;28;20461;-69
2021/11/30 08:27:59;;;;;;;12.23;8.43;;;;;;;;;;5047825;28;20462;-68
2021/11/30 08:30:44;;;;;;;13.97;8.60;;;;;;;;;;5047819;28;20445;-69
2021/11/30 08:33:14;;;;;;;15.07;7.97;;;;;;;;;;5046517;28;20458;-69
2021/11/30 08:35:42;;;;;;;10.60;8.00;;;;;;;;;;5044683;28;20949;-68
2021/11/30 08:38:10;;;;;;;16.17;8.03;;;;;;;;;;5051861;28;20485;-69
2021/11/30 08:40:38;;;;;;;10.00;8.10;;;;;;;;;;5047194;28;20491;-70
2021/11/30 08:43:07;;;;;;;10.97;8.53;;;;;;;;;;5054420;28;20533;-70
2021/11/30 08:45:35;;;;;;;10.63;7.33;;;;;;;;;;5049383;28;20487;-70
2021/11/30 08:48:03;;;;;;;12.30;8.37;;;;;;;;;;5045202;28;20965;-70
2021/11/30 08:50:32;;;;;;;15.40;8.60;;;;;;;;;;5052944;28;20536;-69
2021/11/30 08:53:01;;;;;;;13.33;8.17;;;;;;;;;;5056764;28;20461;-69
2021/11/30 08:55:29;;;;;;;15.63;7.50;;;;;;;;;;5059755;28;20548;-68
2021/11/30 08:58:01;;;;;;;8.60;6.93;;;;;;;;;;5059767;28;20557;-68
2021/11/30 09:00:30;;;;;;;9.60;7.13;;;;;;;;;;5069961;28;20568;-70
2021/11/30 09:02:58;;;;;;;10.47;7.83;;;;;;;;;;5045902;28;20446;-70
2021/11/30 09:05:27;;;;;;;12.00;7.30;;;;;;;;;;5045827;28;20462;-70
2021/11/30 09:07:57;;;;;;;11.30;7.83;;;;;;;;;;5043777;28;21017;-70
2021/11/30 09:10:25;;;;;;;11.60;7.73;;;;;;;;;;5047524;28;20470;-70
2021/11/30 09:12:54;;;;;;;10.57;7.10;;;;;;;;;;5043398;28;20493;-69
2021/11/30 09:15:22;;;;;;;12.37;7.50;;;;;;;;;;5047022;28;20454;-70
2021/11/30 09:17:50;;;;;;;10.40;7.57;;;;;;;;;;5047473;28;20449;-71
2021/11/30 09:20:19;;;;;;;9.20;6.80;;;;;;;;;;5047735;28;20961;-70
2021/11/30 09:22:47;;;;;;;9.60;6.70;;;;;;;;;;5047663;28;20446;-71
2021/11/30 09:25:16;;;;;;;11.23;6.20;;;;;;;;;;5058878;28;20469;-70
2021/11/30 09:27:44;;;;;;;10.97;6.70;;;;;;;;;;5050835;28;20774;-70
2021/11/30 09:30:14;;;;;;;12.50;6.90;;;;;;;;;;5048669;28;20493;-69
2021/11/30 09:32:42;;;;;;;9.03;6.53;;;;;;;;;;5048075;28;20433;-70
2021/11/30 09:35:12;;;;;;;9.00;6.27;;;;;;;;;;5046137;28;20461;-70
2021/11/30 09:37:40;;;;;;;9.53;6.07;;;;;;;;;;5049970;28;20536;-70
2021/11/30 09:40:11;;;;;;;10.20;5.90;;;;;;;;;;5058321;28;20560;-70
2021/11/30 09:42:40;;;;;;;8.03;6.40;;;;;;;;;;5052961;28;20469;-69
2021/11/30 09:45:10;;;;;;;8.47;5.60;;;;;;;;;;5045336;28;20438;-70
2021/11/30 09:47:39;;;;;;;8.27;5.67;;;;;;;;;;5046949;28;20886;-70
2021/11/30 09:50:08;;;;;;;18.30;6.53;;;;;;;;;;5037807;28;20446;-70
2021/11/30 09:52:36;;;;;;;8.70;6.00;;;;;;;;;;5046867;28;20525;-69
2021/11/30 09:55:05;;;;;;;9.07;5.27;;;;;;;;;;5044770;28;20474;-70
2021/11/30 09:57:33;;;;;;;10.53;5.53;;;;;;;;;;5047160;28;20453;-70
2021/11/30 10:00:03;;;;;;;7.10;4.50;;;;;;;;;;5047800;28;20450;-70
2021/11/30 10:02:54;;;;;;;7.40;5.17;;;;;;;;;;5043312;28;20426;-70
2021/11/30 10:05:22;;;;;;;9.13;5.10;;;;;;;;;;5046749;28;20977;-70
2021/11/30 10:07:51;;;;;;;7.70;4.93;;;;;;;;;;5052127;28;20848;-71
2021/11/30 10:10:22;;;;;;;8.30;5.23;;;;;;;;;;5047455;28;20464;-69
2021/11/30 10:12:54;;;;;;;6.67;4.90;;;;;;;;;;5043684;28;20485;-70
2021/11/30 10:15:24;;;;;;;5.97;4.63;;;;;;;;;;5046727;28;20867;-72
2021/11/30 10:17:52;;;;;;;8.43;4.80;;;;;;;;;;5046008;28;20454;-70
2021/11/30 10:20:20;;;;;;;7.20;4.90;;;;;;;;;;5046044;28;20541;-70
2021/11/30 10:22:54;;;;;;;8.70;5.47;;;;;;;;;;5044957;28;20933;-72
2021/11/30 10:25:23;;;;;;;8.47;4.37;;;;;;;;;;5044976;28;20453;-72
2021/11/30 10:27:53;;;;;;;5.70;4.43;;;;;;;;;;5043997;28;20442;-70
2021/11/30 10:30:22;;;;;;;7.73;5.43;;;;;;;;;;5044928;28;20445;-71
2021/11/30 10:32:52;;;;;;;6.57;4.97;;;;;;;;;;5043452;28;20438;-71
2021/11/30 10:35:22;;;;;;;8.33;4.97;;;;;;;;;;5045355;28;20449;-70
2021/11/30 10:37:50;;;;;;;6.27;4.50;;;;;;;;;;5044810;28;20454;-70
2021/11/30 10:40:19;;;;;;;7.40;5.20;;;;;;;;;;5047181;28;20536;-69
2021/11/30 10:42:48;;;;;;;6.67;5.00;;;;;;;;;;5044966;28;20450;-70
2021/11/30 10:45:31;;;;;;;8.00;5.20;;;;;;;;;;5054687;28;20451;-70
2021/11/30 10:48:05;;;;;;;8.20;4.83;;;;;;;;;;5049654;28;20504;-71
2021/11/30 10:50:36;;;;;;;8.73;5.30;;;;;;;;;;5057775;28;20445;-71
2021/11/30 10:53:13;;;;;;;11.47;6.13;;;;;;;;;;5057885;28;20445;-70
2021/11/30 10:55:46;;;;;;;8.73;5.30;;;;;;;;;;5053028;28;20958;-70
2021/11/30 10:58:14;;;;;;;9.87;4.60;;;;;;;;;;5061237;28;20822;-71
2021/11/30 11:00:42;;;;;;;7.57;5.07;;;;;;;;;;5070060;28;20437;-69
2021/11/30 11:03:16;;;;;;;7.57;4.63;;;;;;;;;;5044325;28;20934;-73
2021/11/30 11:05:45;;;;;;;8.73;5.40;;;;;;;;;;5044590;28;20481;-71
2021/11/30 11:08:14;;;;;;;6.50;5.37;;;;;;;;;;5046508;28;20461;-71
2021/11/30 11:10:43;;;;;;;8.47;4.57;;;;;;;;;;5057601;28;20285;-73
2021/11/30 11:13:22;;;;;;;10.97;4.67;;;;;;;;;;5042937;28;20482;-72
2021/11/30 11:15:50;;;;;;;13.17;4.97;;;;;;;;;;5051539;28;20532;-72
2021/11/30 11:18:24;;;;;;;7.20;4.27;;;;;;;;;;5043020;28;20223;-70
2021/11/30 11:20:53;;;;;;;4.53;3.73;;;;;;;;;;5053866;28;20824;-70
2021/11/30 11:23:25;;;;;;;10.57;4.00;;;;;;;;;;5057235;28;20445;-72
2021/11/30 11:25:54;;;;;;;7.03;4.20;;;;;;;;;;5057361;28;20294;-66
2021/11/30 11:28:23;;;;;;;7.87;4.47;;;;;;;;;;5057164;28;20225;-66
2021/11/30 11:30:51;;;;;;;10.00;3.93;;;;;;;;;;5045333;28;20258;-66
2021/11/30 11:33:19;;;;;;;11.27;4.33;;;;;;;;;;5044012;28;20203;-66
2021/11/30 11:35:48;;;;;;;9.20;4.67;;;;;;;;;;5045005;28;20206;-66
2021/11/30 11:38:18;;;;;;;8.70;4.13;;;;;;;;;;5044691;28;20481;-66
2021/11/30 11:40:46;;;;;;;6.50;4.33;;;;;;;;;;5045902;28;20207;-66
2021/11/30 11:43:15;;;;;;;5.43;3.87;;;;;;;;;;5038168;28;20488;-66
2021/11/30 11:45:43;;;;;;;5.97;4.10;;;;;;;;;;5044617;28;21016;-66
2021/11/30 11:48:12;;;;;;;7.67;4.40;;;;;;;;;;5042392;28;20537;-66
2021/11/30 11:50:51;;;;;;;6.40;3.57;;;;;;;;;;5043866;28;20634;-66
2021/11/30 11:53:23;;;;;;;4.80;3.00;;;;;;;;;;5040170;28;20436;-66
2021/11/30 11:56:11;;;;;;;7.43;3.77;;;;;;;;;;5045656;28;20518;-66
2021/11/30 11:58:40;;;;;;;5.43;3.53;;;;;;;;;;5046888;28;20466;-66
2021/11/30 12:01:09;;;;;;;3.63;2.57;;;;;;;;;;5049358;28;20450;-70
2021/11/30 12:03:55;;;;;;;5.27;3.33;;;;;;;;;;5048140;28;20483;-69
2021/11/30 12:06:27;;;;;;;7.57;4.20;;;;;;;;;;5052148;28;20949;-69
2021/11/30 12:09:09;;;;;;;4.47;3.80;;;;;;;;;;5045814;28;20473;-70
2021/11/30 12:11:37;;;;;;;8.13;4.30;;;;;;;;;;5036932;28;20451;-70
2021/11/30 12:14:13;;;;;;;6.23;3.63;;;;;;;;;;5038492;28;20203;-70
2021/11/30 12:17:00;;;;;;;8.50;3.77;;;;;;;;;;5043899;28;20446;-70
2021/11/30 12:19:29;;;;;;;5.27;3.57;;;;;;;;;;5044906;28;20464;-69
2021/11/30 12:21:58;;;;;;;5.23;3.60;;;;;;;;;;5042208;28;21123;-70
2021/11/30 12:24:33;;;;;;;8.87;4.33;;;;;;;;;;5039289;28;20930;-70
2021/11/30 12:27:02;;;;;;;6.67;3.70;;;;;;;;;;5042874;28;20463;-69
2021/11/30 12:29:34;;;;;;;5.40;2.90;;;;;;;;;;5046155;28;20983;-69
2021/11/30 12:32:13;;;;;;;5.90;2.73;;;;;;;;;;5051368;28;20441;-70
2021/11/30 12:34:44;;;;;;;3.90;2.90;;;;;;;;;;5049556;28;20450;-68
2021/11/30 12:37:16;;;;;;;3.03;2.77;;;;;;;;;;5049467;28;20449;-68
2021/11/30 12:40:04;;;;;;;5.60;2.70;;;;;;;;;;5058369;28;20481;-71
2021/11/30 12:42:32;;;;;;;2.77;2.30;;;;;;;;;;5059544;28;20493;-75
2021/11/30 12:45:01;;;;;;;6.13;3.17;;;;;;;;;;5045636;28;20463;-73
2021/11/30 12:47:29;;;;;;;3.53;2.40;;;;;;;;;;5060112;28;20447;-72
2021/11/30 12:50:00;;;;;;;5.30;2.17;;;;;;;;;;5059887;28;20465;-73
2021/11/30 12:52:32;;;;;;;3.70;2.37;;;;;;;;;;5059064;28;20810;-73
2021/11/30 12:55:19;;;;;;;3.20;2.67;;;;;;;;;;5057857;28;20451;-71
2021/11/30 12:57:47;;;;;;;9.30;3.23;;;;;;;;;;5057882;28;20463;-71
2021/11/30 13:00:21;;;;;;;4.73;2.77;;;;;;;;;;5057495;28;20437;-72
2021/11/30 13:02:49;;;;;;;4.93;2.83;;;;;;;;;;5058848;28;20564;-72
2021/11/30 13:05:28;;;;;;;4.57;2.40;;;;;;;;;;5054369;28;20449;-71
2021/11/30 13:08:03;;;;;;;2.27;1.80;;;;;;;;;;5057483;28;20448;-72
2021/11/30 13:10:33;;;;;;;3.80;2.03;;;;;;;;;;5054022;28;20484;-72
2021/11/30 13:13:07;;;;;;;3.03;2.03;;;;;;;;;;5060485;28;20569;-71
2021/11/30 13:15:40;;;;;;;7.40;2.90;;;;;;;;;;5056401;28;20528;-72
2021/11/30 13:18:08;;;;;;;2.90;2.30;;;;;;;;;;5061879;28;20544;-71
2021/11/30 13:20:36;;;;;;;2.87;2.50;;;;;;;;;;5057931;28;20437;-72
2021/11/30 13:23:10;;;;;;;3.07;2.50;;;;;;;;;;5057462;28;20483;-71
2021/11/30 13:25:38;;;;;;;4.87;2.37;;;;;;;;;;5061009;28;20443;-71
2021/11/30 13:28:10;;;;;;;3.53;2.40;;;;;;;;;;5057489;28;20477;-72
2021/11/30 13:30:38;;;;;;;4.20;2.67;;;;;;;;;;5058590;28;20433;-72
2021/11/30 13:33:08;;;;;;;5.60;2.50;;;;;;;;;;5059646;28;20440;-71
2021/11/30 13:35:37;;;;;;;3.67;2.57;;;;;;;;;;5052127;28;20457;-72
2021/11/30 13:38:08;;;;;;;3.40;3.00;;;;;;;;;;5057856;28;20472;-71
2021/11/30 13:40:40;;;;;;;6.13;2.60;;;;;;;;;;5056976;28;20449;-72
2021/11/30 13:43:09;;;;;;;6.37;3.17;;;;;;;;;;5059565;28;20556;-71
2021/11/30 13:45:40;;;;;;;3.43;2.60;;;;;;;;;;5055446;28;20481;-71
2021/11/30 13:48:09;;;;;;;4.17;2.80;;;;;;;;;;5059468;28;20535;-71
2021/11/30 13:50:41;;;;;;;3.83;2.77;;;;;;;;;;5060479;28;20520;-69
2021/11/30 13:53:10;;;;;;;4.27;2.90;;;;;;;;;;5055083;28;20438;-73
2021/11/30 13:55:41;;;;;;;3.30;2.80;;;;;;;;;;5045542;28;20528;-73
2021/11/30 13:58:15;;;;;;;4.37;2.90;;;;;;;;;;5045604;28;21011;-72
2021/11/30 14:00:56;;;;;;;4.23;3.27;;;;;;;;;;5058065;28;20441;-72
2021/11/30 14:03:38;;;;;;;3.70;2.90;;;;;;;;;;5055071;28;20536;-72
2021/11/30 14:06:17;;;;;;;6.03;3.87;;;;;;;;;;5052106;28;20467;-73
2021/11/30 14:08:45;;;;;;;5.03;3.23;;;;;;;;;;5057704;28;20972;-73
2021/11/30 14:11:20;;;;;;;5.30;3.03;;;;;;;;;;5058453;28;20468;-73
2021/11/30 14:13:48;;;;;;;7.20;4.43;;;;;;;;;;5056417;28;20464;-73
2021/11/30 14:16:16;;;;;;;7.97;4.03;;;;;;;;;;5045997;28;20520;-74
2021/11/30 14:18:53;;;;;;;5.17;3.40;;;;;;;;;;5055703;28;20509;-73
2021/11/30 14:21:21;;;;;;;4.70;3.37;;;;;;;;;;5058504;28;20532;-74
2021/11/30 14:24:09;;;;;;;5.17;3.73;;;;;;;;;;5058333;28;20485;-73
2021/11/30 14:26:45;;;;;;;5.67;3.40;;;;;;;;;;5050549;28;20532;-73
2021/11/30 14:29:15;;;;;;;4.10;3.50;;;;;;;;;;5058145;28;20465;-74
2021/11/30 14:31:53;;;;;;;6.30;4.23;;;;;;;;;;5057682;28;20945;-73
2021/11/30 14:34:22;;;;;;;6.17;3.77;;;;;;;;;;5057364;28;20458;-74
2021/11/30 14:36:50;;;;;;;5.47;4.07;;;;;;;;;;5056564;28;20441;-74
2021/11/30 14:39:25;;;;;;;7.67;5.20;;;;;;;;;;5064607;28;20487;-73
2021/11/30 14:41:56;;;;;;;8.10;5.63;;;;;;;;;;5045433;28;20495;-73
2021/11/30 14:44:28;;;;;;;13.00;5.37;;;;;;;;;;5057462;28;20481;-74
2021/11/30 14:46:56;;;;;;;9.50;5.13;;;;;;;;;;5057615;28;20814;-73
2021/11/30 14:49:24;;;;;;;10.10;6.37;;;;;;;;;;5042349;28;20478;-73
2021/11/30 14:51:52;;;;;;;7.63;5.73;;;;;;;;;;5057267;28;20441;-74
2021/11/30 14:54:21;;;;;;;11.20;6.33;;;;;;;;;;5058167;28;20451;-74
2021/11/30 14:56:49;;;;;;;9.17;5.77;;;;;;;;;;5054227;28;20453;-74
2021/11/30 14:59:18;;;;;;;10.70;6.07;;;;;;;;;;5071769;28;20471;-73
2021/11/30 15:01:57;;;;;;;10.97;7.37;;;;;;;;;;5054323;28;21210;-74